Elaine, AR (72333)

2:59 PM CST on March 01, 2015 (GMT -0600)
Fletcher | Change Station
CLOSE
Current Station
Airport
Location: Clarksdale Fletcher Field Air,
Elevation: 174 ft
Nearby Weather Stations

Elev 174 ft 34.30 °N, 90.51 °W | Updated 24 minutes ago

Fog
Fog
41 °F
Feels Like 38 °F
N
5
Wind Variable Wind from North

Today
High -- | Low -- °F
--% Chance of Precip.
Yesterday
High -- | Low -- °F
Precip. -- in
6:32 AM 5:59 PM
Waxing Gibbous, 87% visible
Pressure 30.31 in
Visibility 2.0 miles
Clouds Overcast 400 ft
Windchill 38 °F
Dew Point 41 °F
Humidity 100%
Rainfall 0.89 in
Snow Depth Not available.
UV 1 out of 12
Pollen 4.50 out of 12
Air Quality Not available.
Flu Activity Not available.
METAR KCKM 012035Z AUTO 36004KT 2SM OVC004 05/05 A3031 RMK AO1 P0007

More Conditions Fewer Conditions

Pressure 30.31 in
Visibility 2.0 miles
Clouds Overcast 400 ft
Windchill 38 °F
Dew Point 41 °F
Humidity 100%
Rainfall 0.89 in
Snow Depth Not available.
UV 1 out of 12
Pollen 4.50 out of 12
Air Quality Not available.
Flu Activity Not available.
METAR KCKM 012035Z AUTO 36004KT 2SM OVC004 05/05 A3031 RMK AO1 P0007

More Conditions Fewer Conditions

10-Day Weather Forecast

Almanac

Astronomy

Mar. 01, 2015 Rise Set
Actual Time
Civil Twilight
Nautical Twilight
Astronomical Twilight
Moon
Length of Visible Light
Length of Day
Tomorrow will be .
, % of the Moon is Illuminated

Today's Extremes

State Highs State Lows

Community

WunderPhotos

Upload Photos

1,801,550 photos uploaded!

WunderBlogs® & News

Nearby

Air Quality

  Air Quality AQ Index Pollutant
Not available.

Snow Depth

Station Depth Elevation

Earthquake Activity

City Distance Mag. Time & Date
Minimum magnitude displayed is 2.5.

Coastal Water Temperatures

Place Temperature

Nearby Weather Stations